sensor_id;sensor_type;location;lat;lon;timestamp;P1;durP1;ratioP1;P2;durP2;ratioP2
17784;SDS011;9016;53.582;10.062;2022-08-19T00:01:24;13.82;;;12.52;;
17784;SDS011;9016;53.582;10.062;2022-08-19T00:03:56;13.15;;;11.85;;
17784;SDS011;9016;53.582;10.062;2022-08-19T00:06:24;18.50;;;15.85;;
17784;SDS011;9016;53.582;10.062;2022-08-19T00:08:52;16.92;;;15.23;;
17784;SDS011;9016;53.582;10.062;2022-08-19T00:11:20;16.50;;;14.70;;
17784;SDS011;9016;53.582;10.062;2022-08-19T00:13:51;15.65;;;14.00;;
17784;SDS011;9016;53.582;10.062;2022-08-19T00:16:21;18.05;;;16.27;;
17784;SDS011;9016;53.582;10.062;2022-08-19T00:18:52;21.08;;;18.67;;
17784;SDS011;9016;53.582;10.062;2022-08-19T00:21:21;20.90;;;18.70;;
17784;SDS011;9016;53.582;10.062;2022-08-19T00:23:49;26.50;;;20.35;;
17784;SDS011;9016;53.582;10.062;2022-08-19T00:26:17;23.05;;;20.00;;
17784;SDS011;9016;53.582;10.062;2022-08-19T00:28:46;23.23;;;19.92;;
17784;SDS011;9016;53.582;10.062;2022-08-19T00:31:14;26.98;;;21.92;;
17784;SDS011;9016;53.582;10.062;2022-08-19T00:33:44;23.90;;;19.58;;
17784;SDS011;9016;53.582;10.062;2022-08-19T00:36:14;22.88;;;18.88;;
17784;SDS011;9016;53.582;10.062;2022-08-19T00:38:42;23.33;;;19.27;;
17784;SDS011;9016;53.582;10.062;2022-08-19T00:41:12;25.05;;;20.70;;
17784;SDS011;9016;53.582;10.062;2022-08-19T00:43:42;21.55;;;19.02;;
17784;SDS011;9016;53.582;10.062;2022-08-19T00:46:10;21.95;;;18.88;;
17784;SDS011;9016;53.582;10.062;2022-08-19T00:48:39;23.90;;;19.70;;
17784;SDS011;9016;53.582;10.062;2022-08-19T00:51:08;24.35;;;21.15;;
17784;SDS011;9016;53.582;10.062;2022-08-19T00:53:36;21.60;;;19.17;;
17784;SDS011;9016;53.582;10.062;2022-08-19T00:56:05;22.02;;;18.88;;
17784;SDS011;9016;53.582;10.062;2022-08-19T00:58:35;22.77;;;19.25;;
17784;SDS011;9016;53.582;10.062;2022-08-19T01:01:04;22.40;;;19.95;;
17784;SDS011;9016;53.582;10.062;2022-08-19T01:03:34;26.73;;;21.13;;
17784;SDS011;9016;53.582;10.062;2022-08-19T01:06:23;27.90;;;22.13;;
17784;SDS011;9016;53.582;10.062;2022-08-19T01:08:51;23.48;;;19.95;;
17784;SDS011;9016;53.582;10.062;2022-08-19T01:11:20;22.20;;;18.75;;
17784;SDS011;9016;53.582;10.062;2022-08-19T01:13:49;27.25;;;22.15;;
17784;SDS011;9016;53.582;10.062;2022-08-19T01:16:19;23.35;;;20.20;;
17784;SDS011;9016;53.582;10.062;2022-08-19T01:18:49;25.80;;;20.77;;
17784;SDS011;9016;53.582;10.062;2022-08-19T01:21:18;21.17;;;18.38;;
17784;SDS011;9016;53.582;10.062;2022-08-19T01:23:55;25.85;;;20.42;;
17784;SDS011;9016;53.582;10.062;2022-08-19T01:26:23;23.27;;;18.48;;
17784;SDS011;9016;53.582;10.062;2022-08-19T01:28:53;21.42;;;18.27;;
17784;SDS011;9016;53.582;10.062;2022-08-19T01:31:27;25.48;;;20.45;;
17784;SDS011;9016;53.582;10.062;2022-08-19T01:33:58;21.98;;;17.85;;
17784;SDS011;9016;53.582;10.062;2022-08-19T01:36:28;22.85;;;18.48;;
17784;SDS011;9016;53.582;10.062;2022-08-19T01:39:00;23.90;;;18.33;;
17784;SDS011;9016;53.582;10.062;2022-08-19T01:41:32;20.88;;;18.48;;
17784;SDS011;9016;53.582;10.062;2022-08-19T01:44:02;21.05;;;18.10;;
17784;SDS011;9016;53.582;10.062;2022-08-19T01:46:44;20.77;;;18.17;;
17784;SDS011;9016;53.582;10.062;2022-08-19T01:49:14;20.92;;;18.30;;
17784;SDS011;9016;53.582;10.062;2022-08-19T01:51:44;21.30;;;19.00;;
17784;SDS011;9016;53.582;10.062;2022-08-19T01:54:14;20.52;;;17.30;;
17784;SDS011;9016;53.582;10.062;2022-08-19T01:56:55;19.92;;;17.65;;
17784;SDS011;9016;53.582;10.062;2022-08-19T01:59:28;20.40;;;17.58;;
17784;SDS011;9016;53.582;10.062;2022-08-19T02:01:57;21.70;;;17.38;;
17784;SDS011;9016;53.582;10.062;2022-08-19T02:04:25;18.67;;;16.65;;
17784;SDS011;9016;53.582;10.062;2022-08-19T02:06:53;18.65;;;16.48;;
17784;SDS011;9016;53.582;10.062;2022-08-19T02:09:22;18.10;;;15.93;;
17784;SDS011;9016;53.582;10.062;2022-08-19T02:11:50;23.17;;;17.65;;
17784;SDS011;9016;53.582;10.062;2022-08-19T02:14:19;20.75;;;17.15;;
17784;SDS011;9016;53.582;10.062;2022-08-19T02:16:47;24.58;;;19.13;;
17784;SDS011;9016;53.582;10.062;2022-08-19T02:19:15;23.60;;;19.25;;
17784;SDS011;9016;53.582;10.062;2022-08-19T02:21:43;24.92;;;18.80;;
17784;SDS011;9016;53.582;10.062;2022-08-19T02:24:11;25.50;;;20.80;;
17784;SDS011;9016;53.582;10.062;2022-08-19T02:26:41;21.98;;;19.00;;
17784;SDS011;9016;53.582;10.062;2022-08-19T02:29:09;27.77;;;19.67;;
17784;SDS011;9016;53.582;10.062;2022-08-19T02:31:37;26.38;;;19.45;;
17784;SDS011;9016;53.582;10.062;2022-08-19T02:34:04;22.25;;;18.67;;
17784;SDS011;9016;53.582;10.062;2022-08-19T02:36:33;21.27;;;18.55;;
17784;SDS011;9016;53.582;10.062;2022-08-19T02:39:01;25.80;;;19.58;;
17784;SDS011;9016;53.582;10.062;2022-08-19T02:41:29;23.20;;;19.00;;
17784;SDS011;9016;53.582;10.062;2022-08-19T02:44:01;23.90;;;18.20;;
17784;SDS011;9016;53.582;10.062;2022-08-19T02:46:50;23.02;;;17.50;;
17784;SDS011;9016;53.582;10.062;2022-08-19T02:49:18;27.50;;;20.42;;
17784;SDS011;9016;53.582;10.062;2022-08-19T02:51:47;23.42;;;19.67;;
17784;SDS011;9016;53.582;10.062;2022-08-19T02:54:15;27.25;;;21.70;;
17784;SDS011;9016;53.582;10.062;2022-08-19T02:56:43;31.70;;;23.42;;
17784;SDS011;9016;53.582;10.062;2022-08-19T02:59:13;34.35;;;22.85;;
17784;SDS011;9016;53.582;10.062;2022-08-19T03:01:41;30.15;;;21.55;;
17784;SDS011;9016;53.582;10.062;2022-08-19T03:04:11;29.02;;;21.38;;
17784;SDS011;9016;53.582;10.062;2022-08-19T03:06:43;33.15;;;22.75;;
17784;SDS011;9016;53.582;10.062;2022-08-19T03:09:13;34.60;;;23.52;;
17784;SDS011;9016;53.582;10.062;2022-08-19T03:11:42;39.45;;;24.77;;
17784;SDS011;9016;53.582;10.062;2022-08-19T03:14:10;34.75;;;24.15;;
17784;SDS011;9016;53.582;10.062;2022-08-19T03:16:42;33.97;;;23.08;;
17784;SDS011;9016;53.582;10.062;2022-08-19T03:19:15;30.63;;;21.27;;
17784;SDS011;9016;53.582;10.062;2022-08-19T03:21:45;32.40;;;21.50;;
17784;SDS011;9016;53.582;10.062;2022-08-19T03:24:13;30.65;;;21.10;;
17784;SDS011;9016;53.582;10.062;2022-08-19T03:26:44;36.13;;;24.20;;
17784;SDS011;9016;53.582;10.062;2022-08-19T03:29:14;35.05;;;23.70;;
17784;SDS011;9016;53.582;10.062;2022-08-19T03:31:57;35.08;;;23.20;;
17784;SDS011;9016;53.582;10.062;2022-08-19T03:34:27;41.20;;;25.25;;
17784;SDS011;9016;53.582;10.062;2022-08-19T03:36:58;45.08;;;26.17;;
17784;SDS011;9016;53.582;10.062;2022-08-19T03:39:30;37.65;;;22.83;;
17784;SDS011;9016;53.582;10.062;2022-08-19T03:41:58;40.92;;;24.90;;
17784;SDS011;9016;53.582;10.062;2022-08-19T03:44:47;39.97;;;24.38;;
17784;SDS011;9016;53.582;10.062;2022-08-19T03:47:16;32.28;;;21.63;;
17784;SDS011;9016;53.582;10.062;2022-08-19T03:49:44;33.22;;;23.02;;
17784;SDS011;9016;53.582;10.062;2022-08-19T03:52:12;38.90;;;22.63;;
17784;SDS011;9016;53.582;10.062;2022-08-19T03:54:40;35.60;;;22.48;;
17784;SDS011;9016;53.582;10.062;2022-08-19T03:57:09;34.47;;;22.48;;
17784;SDS011;9016;53.582;10.062;2022-08-19T03:59:38;38.00;;;22.38;;
17784;SDS011;9016;53.582;10.062;2022-08-19T04:02:07;33.67;;;21.27;;
17784;SDS011;9016;53.582;10.062;2022-08-19T04:04:39;34.53;;;22.27;;
17784;SDS011;9016;53.582;10.062;2022-08-19T04:07:09;38.35;;;22.20;;
17784;SDS011;9016;53.582;10.062;2022-08-19T04:09:39;33.65;;;20.52;;
17784;SDS011;9016;53.582;10.062;2022-08-19T04:12:07;33.97;;;21.10;;
17784;SDS011;9016;53.582;10.062;2022-08-19T04:14:36;31.35;;;21.23;;
17784;SDS011;9016;53.582;10.062;2022-08-19T04:17:04;27.73;;;19.60;;
17784;SDS011;9016;53.582;10.062;2022-08-19T04:19:32;36.13;;;22.58;;
17784;SDS011;9016;53.582;10.062;2022-08-19T04:22:02;32.90;;;20.70;;
17784;SDS011;9016;53.582;10.062;2022-08-19T04:24:31;26.25;;;19.52;;
17784;SDS011;9016;53.582;10.062;2022-08-19T04:26:59;28.70;;;20.13;;
17784;SDS011;9016;53.582;10.062;2022-08-19T04:29:27;30.35;;;21.05;;
17784;SDS011;9016;53.582;10.062;2022-08-19T04:31:56;33.72;;;23.42;;
17784;SDS011;9016;53.582;10.062;2022-08-19T04:34:34;34.83;;;23.73;;
17784;SDS011;9016;53.582;10.062;2022-08-19T04:37:25;29.88;;;20.70;;
17784;SDS011;9016;53.582;10.062;2022-08-19T04:40:00;27.25;;;18.00;;
17784;SDS011;9016;53.582;10.062;2022-08-19T04:42:45;30.88;;;20.95;;
17784;SDS011;9016;53.582;10.062;2022-08-19T04:45:14;33.22;;;22.77;;
17784;SDS011;9016;53.582;10.062;2022-08-19T04:47:43;32.40;;;23.63;;
17784;SDS011;9016;53.582;10.062;2022-08-19T04:50:23;31.40;;;22.48;;
17784;SDS011;9016;53.582;10.062;2022-08-19T04:52:52;33.05;;;22.95;;
17784;SDS011;9016;53.582;10.062;2022-08-19T04:55:22;40.78;;;25.58;;
17784;SDS011;9016;53.582;10.062;2022-08-19T04:57:52;34.53;;;23.92;;
17784;SDS011;9016;53.582;10.062;2022-08-19T05:00:21;35.92;;;26.17;;
17784;SDS011;9016;53.582;10.062;2022-08-19T05:02:49;35.97;;;26.50;;
17784;SDS011;9016;53.582;10.062;2022-08-19T05:05:18;37.95;;;27.30;;
17784;SDS011;9016;53.582;10.062;2022-08-19T05:07:47;33.05;;;25.83;;
17784;SDS011;9016;53.582;10.062;2022-08-19T05:10:16;39.35;;;28.02;;
17784;SDS011;9016;53.582;10.062;2022-08-19T05:12:45;36.92;;;25.75;;
17784;SDS011;9016;53.582;10.062;2022-08-19T05:15:13;40.70;;;27.55;;
17784;SDS011;9016;53.582;10.062;2022-08-19T05:17:41;42.00;;;26.17;;
17784;SDS011;9016;53.582;10.062;2022-08-19T05:20:29;39.67;;;27.92;;
17784;SDS011;9016;53.582;10.062;2022-08-19T05:23:15;39.17;;;28.33;;
17784;SDS011;9016;53.582;10.062;2022-08-19T05:25:49;40.20;;;30.05;;
17784;SDS011;9016;53.582;10.062;2022-08-19T05:28:18;37.78;;;28.42;;
17784;SDS011;9016;53.582;10.062;2022-08-19T05:30:46;43.83;;;33.60;;
17784;SDS011;9016;53.582;10.062;2022-08-19T05:33:17;37.03;;;28.17;;
17784;SDS011;9016;53.582;10.062;2022-08-19T05:35:45;45.10;;;32.55;;
17784;SDS011;9016;53.582;10.062;2022-08-19T05:38:15;42.60;;;29.95;;
17784;SDS011;9016;53.582;10.062;2022-08-19T05:40:43;34.13;;;26.13;;
17784;SDS011;9016;53.582;10.062;2022-08-19T05:43:16;40.67;;;31.58;;
17784;SDS011;9016;53.582;10.062;2022-08-19T05:45:44;36.08;;;28.15;;
17784;SDS011;9016;53.582;10.062;2022-08-19T05:48:13;42.38;;;29.88;;
17784;SDS011;9016;53.582;10.062;2022-08-19T05:50:41;40.65;;;29.25;;
17784;SDS011;9016;53.582;10.062;2022-08-19T05:53:11;38.92;;;29.08;;
17784;SDS011;9016;53.582;10.062;2022-08-19T05:55:40;37.50;;;28.83;;
17784;SDS011;9016;53.582;10.062;2022-08-19T05:58:09;36.45;;;27.25;;
17784;SDS011;9016;53.582;10.062;2022-08-19T06:00:38;39.75;;;28.92;;
17784;SDS011;9016;53.582;10.062;2022-08-19T06:03:07;43.45;;;30.80;;
17784;SDS011;9016;53.582;10.062;2022-08-19T06:05:38;37.35;;;28.33;;
17784;SDS011;9016;53.582;10.062;2022-08-19T06:08:16;38.13;;;28.70;;
17784;SDS011;9016;53.582;10.062;2022-08-19T06:10:45;39.92;;;29.02;;
17784;SDS011;9016;53.582;10.062;2022-08-19T06:13:12;36.53;;;25.42;;
17784;SDS011;9016;53.582;10.062;2022-08-19T06:15:42;33.25;;;25.80;;
17784;SDS011;9016;53.582;10.062;2022-08-19T06:18:12;37.60;;;28.80;;
17784;SDS011;9016;53.582;10.062;2022-08-19T06:20:42;40.03;;;28.52;;
17784;SDS011;9016;53.582;10.062;2022-08-19T06:23:23;32.05;;;24.75;;
17784;SDS011;9016;53.582;10.062;2022-08-19T06:25:51;34.30;;;25.50;;
17784;SDS011;9016;53.582;10.062;2022-08-19T06:28:19;39.33;;;28.38;;
17784;SDS011;9016;53.582;10.062;2022-08-19T06:30:51;34.88;;;26.55;;
17784;SDS011;9016;53.582;10.062;2022-08-19T06:33:19;33.75;;;24.95;;
17784;SDS011;9016;53.582;10.062;2022-08-19T06:35:47;30.33;;;23.73;;
17784;SDS011;9016;53.582;10.062;2022-08-19T06:38:15;34.03;;;26.60;;
17784;SDS011;9016;53.582;10.062;2022-08-19T06:40:43;32.92;;;25.40;;
17784;SDS011;9016;53.582;10.062;2022-08-19T06:43:11;32.22;;;25.65;;
17784;SDS011;9016;53.582;10.062;2022-08-19T06:45:43;32.78;;;25.52;;
17784;SDS011;9016;53.582;10.062;2022-08-19T06:48:14;30.95;;;23.98;;
17784;SDS011;9016;53.582;10.062;2022-08-19T06:50:43;36.10;;;26.63;;
17784;SDS011;9016;53.582;10.062;2022-08-19T06:53:11;34.88;;;26.38;;
17784;SDS011;9016;53.582;10.062;2022-08-19T06:55:40;32.47;;;25.33;;
17784;SDS011;9016;53.582;10.062;2022-08-19T06:58:08;31.63;;;24.98;;
17784;SDS011;9016;53.582;10.062;2022-08-19T07:00:36;37.10;;;27.88;;
17784;SDS011;9016;53.582;10.062;2022-08-19T07:03:05;33.53;;;26.67;;
17784;SDS011;9016;53.582;10.062;2022-08-19T07:05:39;41.90;;;33.67;;
17784;SDS011;9016;53.582;10.062;2022-08-19T07:08:11;47.15;;;35.65;;
17784;SDS011;9016;53.582;10.062;2022-08-19T07:10:42;42.63;;;31.55;;
17784;SDS011;9016;53.582;10.062;2022-08-19T07:13:11;44.15;;;30.45;;
17784;SDS011;9016;53.582;10.062;2022-08-19T07:15:39;32.60;;;25.77;;
17784;SDS011;9016;53.582;10.062;2022-08-19T07:18:08;36.85;;;26.90;;
17784;SDS011;9016;53.582;10.062;2022-08-19T07:20:38;36.00;;;27.08;;
17784;SDS011;9016;53.582;10.062;2022-08-19T07:23:08;37.08;;;28.50;;
17784;SDS011;9016;53.582;10.062;2022-08-19T07:25:42;41.92;;;29.52;;
17784;SDS011;9016;53.582;10.062;2022-08-19T07:28:18;42.75;;;31.88;;
17784;SDS011;9016;53.582;10.062;2022-08-19T07:30:50;43.28;;;34.63;;
17784;SDS011;9016;53.582;10.062;2022-08-19T07:33:18;51.55;;;41.65;;
17784;SDS011;9016;53.582;10.062;2022-08-19T07:35:48;49.47;;;34.72;;
17784;SDS011;9016;53.582;10.062;2022-08-19T07:38:16;45.17;;;32.97;;
17784;SDS011;9016;53.582;10.062;2022-08-19T07:40:44;41.72;;;30.02;;
17784;SDS011;9016;53.582;10.062;2022-08-19T07:43:13;41.60;;;31.33;;
17784;SDS011;9016;53.582;10.062;2022-08-19T07:45:43;43.17;;;29.98;;
17784;SDS011;9016;53.582;10.062;2022-08-19T07:48:13;41.92;;;30.52;;
17784;SDS011;9016;53.582;10.062;2022-08-19T07:50:41;40.20;;;31.65;;
17784;SDS011;9016;53.582;10.062;2022-08-19T07:53:11;41.40;;;29.10;;
17784;SDS011;9016;53.582;10.062;2022-08-19T07:55:39;46.28;;;36.80;;
17784;SDS011;9016;53.582;10.062;2022-08-19T07:58:09;39.42;;;29.27;;
17784;SDS011;9016;53.582;10.062;2022-08-19T08:00:39;35.45;;;26.77;;
17784;SDS011;9016;53.582;10.062;2022-08-19T08:03:08;36.55;;;28.20;;
17784;SDS011;9016;53.582;10.062;2022-08-19T08:05:36;37.78;;;26.15;;
17784;SDS011;9016;53.582;10.062;2022-08-19T08:08:23;36.40;;;28.00;;
17784;SDS011;9016;53.582;10.062;2022-08-19T08:11:13;35.15;;;27.23;;
17784;SDS011;9016;53.582;10.062;2022-08-19T08:13:45;32.38;;;24.73;;
17784;SDS011;9016;53.582;10.062;2022-08-19T08:16:26;35.10;;;25.17;;
17784;SDS011;9016;53.582;10.062;2022-08-19T08:18:56;34.67;;;27.25;;
17784;SDS011;9016;53.582;10.062;2022-08-19T08:21:24;36.25;;;27.35;;
17784;SDS011;9016;53.582;10.062;2022-08-19T08:23:54;30.33;;;24.55;;
17784;SDS011;9016;53.582;10.062;2022-08-19T08:26:22;30.80;;;24.90;;
17784;SDS011;9016;53.582;10.062;2022-08-19T08:28:51;33.28;;;25.10;;
17784;SDS011;9016;53.582;10.062;2022-08-19T08:31:19;33.75;;;25.38;;
17784;SDS011;9016;53.582;10.062;2022-08-19T08:33:47;35.72;;;26.25;;
17784;SDS011;9016;53.582;10.062;2022-08-19T08:36:15;30.13;;;25.80;;
17784;SDS011;9016;53.582;10.062;2022-08-19T08:38:43;34.08;;;30.35;;
17784;SDS011;9016;53.582;10.062;2022-08-19T08:41:16;31.20;;;26.20;;
17784;SDS011;9016;53.582;10.062;2022-08-19T08:43:52;26.33;;;21.83;;
17784;SDS011;9016;53.582;10.062;2022-08-19T08:46:23;67.93;;;60.75;;
17784;SDS011;9016;53.582;10.062;2022-08-19T08:48:59;30.63;;;26.42;;
17784;SDS011;9016;53.582;10.062;2022-08-19T08:51:36;50.45;;;45.15;;
17784;SDS011;9016;53.582;10.062;2022-08-19T08:54:12;29.75;;;26.08;;
17784;SDS011;9016;53.582;10.062;2022-08-19T08:56:43;29.05;;;24.17;;
17784;SDS011;9016;53.582;10.062;2022-08-19T08:59:18;25.20;;;20.50;;
17784;SDS011;9016;53.582;10.062;2022-08-19T09:01:50;20.20;;;17.10;;
17784;SDS011;9016;53.582;10.062;2022-08-19T09:04:18;25.38;;;20.73;;
17784;SDS011;9016;53.582;10.062;2022-08-19T09:06:51;20.00;;;16.88;;
17784;SDS011;9016;53.582;10.062;2022-08-19T09:09:26;17.77;;;15.45;;
17784;SDS011;9016;53.582;10.062;2022-08-19T09:12:03;23.17;;;17.42;;
17784;SDS011;9016;53.582;10.062;2022-08-19T09:14:41;20.88;;;18.15;;
17784;SDS011;9016;53.582;10.062;2022-08-19T09:17:17;18.38;;;15.65;;
17784;SDS011;9016;53.582;10.062;2022-08-19T09:19:58;21.70;;;16.60;;
17784;SDS011;9016;53.582;10.062;2022-08-19T09:22:34;33.65;;;30.15;;
17784;SDS011;9016;53.582;10.062;2022-08-19T09:25:04;21.40;;;19.10;;
17784;SDS011;9016;53.582;10.062;2022-08-19T09:27:35;19.83;;;16.45;;
17784;SDS011;9016;53.582;10.062;2022-08-19T09:30:10;20.45;;;16.40;;
17784;SDS011;9016;53.582;10.062;2022-08-19T09:32:41;19.73;;;15.68;;
17784;SDS011;9016;53.582;10.062;2022-08-19T09:35:10;20.38;;;16.70;;
17784;SDS011;9016;53.582;10.062;2022-08-19T09:37:40;25.02;;;18.83;;
17784;SDS011;9016;53.582;10.062;2022-08-19T09:40:09;21.65;;;16.27;;
17784;SDS011;9016;53.582;10.062;2022-08-19T09:42:42;20.63;;;17.13;;
17784;SDS011;9016;53.582;10.062;2022-08-19T09:45:19;18.70;;;16.63;;
17784;SDS011;9016;53.582;10.062;2022-08-19T09:47:49;22.88;;;17.23;;
17784;SDS011;9016;53.582;10.062;2022-08-19T09:50:20;27.05;;;20.20;;
17784;SDS011;9016;53.582;10.062;2022-08-19T09:52:49;20.27;;;16.20;;
17784;SDS011;9016;53.582;10.062;2022-08-19T09:55:23;21.00;;;17.38;;
17784;SDS011;9016;53.582;10.062;2022-08-19T09:57:59;23.40;;;16.90;;
17784;SDS011;9016;53.582;10.062;2022-08-19T10:00:28;21.17;;;15.23;;
17784;SDS011;9016;53.582;10.062;2022-08-19T10:02:58;23.13;;;17.27;;
17784;SDS011;9016;53.582;10.062;2022-08-19T10:05:26;22.00;;;17.70;;
17784;SDS011;9016;53.582;10.062;2022-08-19T10:08:14;22.80;;;18.30;;
17784;SDS011;9016;53.582;10.062;2022-08-19T10:10:46;20.58;;;16.73;;
17784;SDS011;9016;53.582;10.062;2022-08-19T10:13:18;25.00;;;19.98;;
17784;SDS011;9016;53.582;10.062;2022-08-19T10:15:51;22.25;;;16.88;;
17784;SDS011;9016;53.582;10.062;2022-08-19T10:18:22;20.60;;;15.00;;
17784;SDS011;9016;53.582;10.062;2022-08-19T10:20:51;19.08;;;15.35;;
17784;SDS011;9016;53.582;10.062;2022-08-19T10:23:29;18.92;;;16.75;;
17784;SDS011;9016;53.582;10.062;2022-08-19T10:26:00;23.75;;;16.05;;
17784;SDS011;9016;53.582;10.062;2022-08-19T10:28:31;20.98;;;15.18;;
17784;SDS011;9016;53.582;10.062;2022-08-19T10:31:04;41.75;;;33.90;;
17784;SDS011;9016;53.582;10.062;2022-08-19T10:33:33;33.33;;;28.00;;
17784;SDS011;9016;53.582;10.062;2022-08-19T10:36:19;25.75;;;22.10;;
17784;SDS011;9016;53.582;10.062;2022-08-19T10:38:50;17.23;;;14.43;;
17784;SDS011;9016;53.582;10.062;2022-08-19T10:41:22;28.85;;;23.13;;
17784;SDS011;9016;53.582;10.062;2022-08-19T10:43:55;22.23;;;18.35;;
17784;SDS011;9016;53.582;10.062;2022-08-19T10:46:30;21.60;;;16.85;;
17784;SDS011;9016;53.582;10.062;2022-08-19T10:48:59;22.75;;;17.52;;
17784;SDS011;9016;53.582;10.062;2022-08-19T10:51:29;22.75;;;16.05;;
17784;SDS011;9016;53.582;10.062;2022-08-19T10:54:15;19.92;;;16.58;;
17784;SDS011;9016;53.582;10.062;2022-08-19T10:56:56;24.90;;;18.23;;
17784;SDS011;9016;53.582;10.062;2022-08-19T10:59:25;22.52;;;16.40;;
17784;SDS011;9016;53.582;10.062;2022-08-19T11:02:02;25.10;;;18.85;;
17784;SDS011;9016;53.582;10.062;2022-08-19T11:04:31;26.25;;;18.05;;
17784;SDS011;9016;53.582;10.062;2022-08-19T11:07:01;25.77;;;19.70;;
17784;SDS011;9016;53.582;10.062;2022-08-19T11:09:30;25.42;;;17.75;;
17784;SDS011;9016;53.582;10.062;2022-08-19T11:11:59;21.02;;;15.95;;
17784;SDS011;9016;53.582;10.062;2022-08-19T11:14:31;22.75;;;18.30;;
17784;SDS011;9016;53.582;10.062;2022-08-19T11:17:01;30.20;;;25.85;;
17784;SDS011;9016;53.582;10.062;2022-08-19T11:19:29;31.85;;;25.13;;
17784;SDS011;9016;53.582;10.062;2022-08-19T11:21:58;50.10;;;45.00;;
17784;SDS011;9016;53.582;10.062;2022-08-19T11:24:29;31.23;;;25.05;;
17784;SDS011;9016;53.582;10.062;2022-08-19T11:27:03;36.85;;;32.53;;
17784;SDS011;9016;53.582;10.062;2022-08-19T11:29:33;21.73;;;18.83;;
17784;SDS011;9016;53.582;10.062;2022-08-19T11:32:03;22.45;;;17.67;;
17784;SDS011;9016;53.582;10.062;2022-08-19T11:34:32;21.15;;;16.80;;
17784;SDS011;9016;53.582;10.062;2022-08-19T11:37:02;24.33;;;19.38;;
17784;SDS011;9016;53.582;10.062;2022-08-19T11:39:32;23.20;;;17.85;;
17784;SDS011;9016;53.582;10.062;2022-08-19T11:42:02;23.27;;;20.77;;
17784;SDS011;9016;53.582;10.062;2022-08-19T11:44:52;19.52;;;17.25;;
17784;SDS011;9016;53.582;10.062;2022-08-19T11:47:21;25.35;;;20.77;;
17784;SDS011;9016;53.582;10.062;2022-08-19T11:49:49;19.58;;;17.52;;
17784;SDS011;9016;53.582;10.062;2022-08-19T11:52:17;19.58;;;16.23;;
17784;SDS011;9016;53.582;10.062;2022-08-19T11:54:46;20.65;;;16.92;;
17784;SDS011;9016;53.582;10.062;2022-08-19T11:57:14;17.88;;;15.30;;
17784;SDS011;9016;53.582;10.062;2022-08-19T11:59:47;16.85;;;14.90;;
17784;SDS011;9016;53.582;10.062;2022-08-19T12:02:17;16.20;;;14.25;;
17784;SDS011;9016;53.582;10.062;2022-08-19T12:04:46;16.83;;;14.93;;
17784;SDS011;9016;53.582;10.062;2022-08-19T12:07:14;16.48;;;14.77;;
17784;SDS011;9016;53.582;10.062;2022-08-19T12:09:42;17.23;;;13.88;;
17784;SDS011;9016;53.582;10.062;2022-08-19T12:12:14;39.40;;;35.33;;
17784;SDS011;9016;53.582;10.062;2022-08-19T12:14:42;21.70;;;19.58;;
17784;SDS011;9016;53.582;10.062;2022-08-19T12:17:11;21.60;;;19.40;;
17784;SDS011;9016;53.582;10.062;2022-08-19T12:19:41;32.47;;;29.00;;
17784;SDS011;9016;53.582;10.062;2022-08-19T12:22:09;18.73;;;16.52;;
17784;SDS011;9016;53.582;10.062;2022-08-19T12:24:36;15.07;;;13.20;;
17784;SDS011;9016;53.582;10.062;2022-08-19T12:27:04;16.52;;;14.20;;
17784;SDS011;9016;53.582;10.062;2022-08-19T12:29:37;15.25;;;13.35;;
17784;SDS011;9016;53.582;10.062;2022-08-19T12:32:06;18.75;;;13.60;;
17784;SDS011;9016;53.582;10.062;2022-08-19T12:34:37;13.68;;;12.27;;
17784;SDS011;9016;53.582;10.062;2022-08-19T12:37:07;37.28;;;33.75;;
17784;SDS011;9016;53.582;10.062;2022-08-19T12:39:36;17.92;;;16.17;;
17784;SDS011;9016;53.582;10.062;2022-08-19T12:42:06;18.83;;;16.75;;
17784;SDS011;9016;53.582;10.062;2022-08-19T12:44:35;15.02;;;13.10;;
17784;SDS011;9016;53.582;10.062;2022-08-19T12:47:06;17.50;;;14.20;;
17784;SDS011;9016;53.582;10.062;2022-08-19T12:49:35;13.43;;;12.02;;
17784;SDS011;9016;53.582;10.062;2022-08-19T12:52:22;13.90;;;12.27;;
17784;SDS011;9016;53.582;10.062;2022-08-19T12:54:51;14.25;;;12.80;;
17784;SDS011;9016;53.582;10.062;2022-08-19T12:57:20;12.85;;;11.65;;
17784;SDS011;9016;53.582;10.062;2022-08-19T12:59:58;16.08;;;14.38;;
17784;SDS011;9016;53.582;10.062;2022-08-19T13:02:31;14.25;;;12.85;;
17784;SDS011;9016;53.582;10.062;2022-08-19T13:05:05;13.15;;;11.68;;
17784;SDS011;9016;53.582;10.062;2022-08-19T13:07:37;14.85;;;13.35;;
17784;SDS011;9016;53.582;10.062;2022-08-19T13:10:07;14.13;;;12.82;;
17784;SDS011;9016;53.582;10.062;2022-08-19T13:12:38;12.77;;;11.52;;
17784;SDS011;9016;53.582;10.062;2022-08-19T13:15:07;13.40;;;12.00;;
17784;SDS011;9016;53.582;10.062;2022-08-19T13:17:37;12.05;;;10.98;;
17784;SDS011;9016;53.582;10.062;2022-08-19T13:20:06;13.45;;;12.25;;
17784;SDS011;9016;53.582;10.062;2022-08-19T13:22:37;12.35;;;11.25;;
17784;SDS011;9016;53.582;10.062;2022-08-19T13:25:06;11.73;;;10.65;;
17784;SDS011;9016;53.582;10.062;2022-08-19T13:27:35;12.88;;;11.63;;
17784;SDS011;9016;53.582;10.062;2022-08-19T13:30:05;12.30;;;11.00;;
17784;SDS011;9016;53.582;10.062;2022-08-19T13:32:54;12.25;;;11.07;;
17784;SDS011;9016;53.582;10.062;2022-08-19T13:35:42;13.93;;;12.63;;
17784;SDS011;9016;53.582;10.062;2022-08-19T13:38:14;11.88;;;10.80;;
17784;SDS011;9016;53.582;10.062;2022-08-19T13:40:44;13.30;;;12.10;;
17784;SDS011;9016;53.582;10.062;2022-08-19T13:43:13;12.40;;;11.20;;
17784;SDS011;9016;53.582;10.062;2022-08-19T13:45:49;13.02;;;11.80;;
17784;SDS011;9016;53.582;10.062;2022-08-19T13:48:19;12.98;;;11.70;;
17784;SDS011;9016;53.582;10.062;2022-08-19T13:50:47;14.35;;;11.80;;
17784;SDS011;9016;53.582;10.062;2022-08-19T13:53:17;13.07;;;11.82;;
17784;SDS011;9016;53.582;10.062;2022-08-19T13:55:45;12.00;;;11.00;;
17784;SDS011;9016;53.582;10.062;2022-08-19T13:58:13;14.10;;;12.60;;
17784;SDS011;9016;53.582;10.062;2022-08-19T14:00:42;14.57;;;12.88;;
17784;SDS011;9016;53.582;10.062;2022-08-19T14:03:12;15.43;;;13.82;;
17784;SDS011;9016;53.582;10.062;2022-08-19T14:05:40;13.27;;;12.02;;
17784;SDS011;9016;53.582;10.062;2022-08-19T14:08:08;11.75;;;10.75;;
17784;SDS011;9016;53.582;10.062;2022-08-19T14:10:38;11.57;;;10.05;;
17784;SDS011;9016;53.582;10.062;2022-08-19T14:13:07;14.30;;;12.80;;
17784;SDS011;9016;53.582;10.062;2022-08-19T14:15:35;15.75;;;14.15;;
17784;SDS011;9016;53.582;10.062;2022-08-19T14:18:03;15.32;;;13.50;;
17784;SDS011;9016;53.582;10.062;2022-08-19T14:20:33;13.52;;;12.23;;
17784;SDS011;9016;53.582;10.062;2022-08-19T14:23:01;12.75;;;11.55;;
17784;SDS011;9016;53.582;10.062;2022-08-19T14:25:31;12.65;;;11.38;;
17784;SDS011;9016;53.582;10.062;2022-08-19T14:28:01;11.52;;;10.38;;
17784;SDS011;9016;53.582;10.062;2022-08-19T14:30:30;15.18;;;13.80;;
17784;SDS011;9016;53.582;10.062;2022-08-19T14:33:00;12.07;;;10.98;;
17784;SDS011;9016;53.582;10.062;2022-08-19T14:35:29;11.32;;;10.27;;
17784;SDS011;9016;53.582;10.062;2022-08-19T14:38:01;14.18;;;12.93;;
17784;SDS011;9016;53.582;10.062;2022-08-19T14:40:31;12.32;;;11.23;;
17784;SDS011;9016;53.582;10.062;2022-08-19T14:43:00;13.45;;;12.13;;